sensor_id;sensor_type;location;lat;lon;timestamp;P1;durP1;ratioP1;P2;durP2;ratioP2
4307;SDS011;2167;53.448;9.984;2022-07-23T00:01:32;1.57;;;1.40;;
4307;SDS011;2167;53.448;9.984;2022-07-23T00:03:59;2.10;;;1.00;;
4307;SDS011;2167;53.448;9.984;2022-07-23T00:06:24;2.27;;;0.80;;
4307;SDS011;2167;53.448;9.984;2022-07-23T00:08:50;1.93;;;1.20;;
4307;SDS011;2167;53.448;9.984;2022-07-23T00:11:16;5.33;;;1.40;;
4307;SDS011;2167;53.448;9.984;2022-07-23T00:13:42;1.40;;;1.30;;
4307;SDS011;2167;53.448;9.984;2022-07-23T00:16:08;4.80;;;1.60;;
4307;SDS011;2167;53.448;9.984;2022-07-23T00:18:34;4.30;;;1.40;;
4307;SDS011;2167;53.448;9.984;2022-07-23T00:20:59;3.77;;;1.20;;
4307;SDS011;2167;53.448;9.984;2022-07-23T00:23:25;1.50;;;1.03;;
4307;SDS011;2167;53.448;9.984;2022-07-23T00:25:52;1.47;;;1.37;;
4307;SDS011;2167;53.448;9.984;2022-07-23T00:28:18;1.17;;;1.07;;
4307;SDS011;2167;53.448;9.984;2022-07-23T00:30:44;3.80;;;1.00;;
4307;SDS011;2167;53.448;9.984;2022-07-23T00:33:10;1.20;;;1.20;;
4307;SDS011;2167;53.448;9.984;2022-07-23T00:35:37;3.50;;;1.20;;
4307;SDS011;2167;53.448;9.984;2022-07-23T00:38:05;0.97;;;0.97;;
4307;SDS011;2167;53.448;9.984;2022-07-23T00:40:32;2.70;;;1.40;;
4307;SDS011;2167;53.448;9.984;2022-07-23T00:42:59;1.10;;;1.00;;
4307;SDS011;2167;53.448;9.984;2022-07-23T00:45:25;2.40;;;1.00;;
4307;SDS011;2167;53.448;9.984;2022-07-23T00:47:51;1.90;;;1.20;;
4307;SDS011;2167;53.448;9.984;2022-07-23T00:50:17;2.83;;;1.33;;
4307;SDS011;2167;53.448;9.984;2022-07-23T00:52:43;5.10;;;1.57;;
4307;SDS011;2167;53.448;9.984;2022-07-23T00:55:09;1.90;;;1.40;;
4307;SDS011;2167;53.448;9.984;2022-07-23T00:57:35;1.80;;;1.10;;
4307;SDS011;2167;53.448;9.984;2022-07-23T01:00:03;2.60;;;1.87;;
4307;SDS011;2167;53.448;9.984;2022-07-23T01:02:31;1.70;;;1.27;;
4307;SDS011;2167;53.448;9.984;2022-07-23T01:04:56;6.00;;;1.33;;
4307;SDS011;2167;53.448;9.984;2022-07-23T01:07:22;2.20;;;1.20;;
4307;SDS011;2167;53.448;9.984;2022-07-23T01:09:49;1.07;;;1.07;;
4307;SDS011;2167;53.448;9.984;2022-07-23T01:12:16;1.40;;;1.17;;
4307;SDS011;2167;53.448;9.984;2022-07-23T01:14:41;1.33;;;1.33;;
4307;SDS011;2167;53.448;9.984;2022-07-23T01:17:07;4.10;;;1.37;;
4307;SDS011;2167;53.448;9.984;2022-07-23T01:19:33;1.17;;;0.90;;
4307;SDS011;2167;53.448;9.984;2022-07-23T01:21:58;1.10;;;1.00;;
4307;SDS011;2167;53.448;9.984;2022-07-23T01:24:27;3.73;;;1.13;;
4307;SDS011;2167;53.448;9.984;2022-07-23T01:26:53;2.23;;;1.00;;
4307;SDS011;2167;53.448;9.984;2022-07-23T01:29:19;3.47;;;1.10;;
4307;SDS011;2167;53.448;9.984;2022-07-23T01:31:46;1.47;;;0.90;;
4307;SDS011;2167;53.448;9.984;2022-07-23T01:34:12;1.73;;;1.23;;
4307;SDS011;2167;53.448;9.984;2022-07-23T01:36:38;2.40;;;1.50;;
4307;SDS011;2167;53.448;9.984;2022-07-23T01:39:05;5.67;;;1.17;;
4307;SDS011;2167;53.448;9.984;2022-07-23T01:41:32;2.10;;;1.47;;
4307;SDS011;2167;53.448;9.984;2022-07-23T01:43:58;1.20;;;1.10;;
4307;SDS011;2167;53.448;9.984;2022-07-23T01:46:23;2.23;;;1.10;;
4307;SDS011;2167;53.448;9.984;2022-07-23T01:48:49;2.57;;;1.23;;
4307;SDS011;2167;53.448;9.984;2022-07-23T01:51:15;2.23;;;1.40;;
4307;SDS011;2167;53.448;9.984;2022-07-23T01:53:41;1.07;;;1.07;;
4307;SDS011;2167;53.448;9.984;2022-07-23T01:56:07;2.37;;;1.03;;
4307;SDS011;2167;53.448;9.984;2022-07-23T01:58:32;4.40;;;1.83;;
4307;SDS011;2167;53.448;9.984;2022-07-23T02:00:58;1.07;;;0.97;;
4307;SDS011;2167;53.448;9.984;2022-07-23T02:03:24;1.90;;;1.37;;
4307;SDS011;2167;53.448;9.984;2022-07-23T02:05:49;3.67;;;1.13;;
4307;SDS011;2167;53.448;9.984;2022-07-23T02:08:15;1.73;;;1.10;;
4307;SDS011;2167;53.448;9.984;2022-07-23T02:10:42;3.43;;;1.23;;
4307;SDS011;2167;53.448;9.984;2022-07-23T02:13:07;2.37;;;1.30;;
4307;SDS011;2167;53.448;9.984;2022-07-23T02:15:33;1.07;;;1.00;;
4307;SDS011;2167;53.448;9.984;2022-07-23T02:17:59;1.63;;;1.30;;
4307;SDS011;2167;53.448;9.984;2022-07-23T02:20:25;1.30;;;1.20;;
4307;SDS011;2167;53.448;9.984;2022-07-23T02:22:51;1.00;;;1.00;;
4307;SDS011;2167;53.448;9.984;2022-07-23T02:25:17;2.00;;;1.30;;
4307;SDS011;2167;53.448;9.984;2022-07-23T02:27:43;1.33;;;1.23;;
4307;SDS011;2167;53.448;9.984;2022-07-23T02:30:09;1.30;;;1.20;;
4307;SDS011;2167;53.448;9.984;2022-07-23T02:32:35;2.23;;;1.43;;
4307;SDS011;2167;53.448;9.984;2022-07-23T02:35:02;2.13;;;1.40;;
4307;SDS011;2167;53.448;9.984;2022-07-23T02:37:28;1.87;;;1.70;;
4307;SDS011;2167;53.448;9.984;2022-07-23T02:39:54;4.73;;;1.17;;
4307;SDS011;2167;53.448;9.984;2022-07-23T02:42:20;4.13;;;1.50;;
4307;SDS011;2167;53.448;9.984;2022-07-23T02:44:46;1.90;;;1.20;;
4307;SDS011;2167;53.448;9.984;2022-07-23T02:47:11;1.67;;;1.43;;
4307;SDS011;2167;53.448;9.984;2022-07-23T02:49:37;1.50;;;1.40;;
4307;SDS011;2167;53.448;9.984;2022-07-23T02:52:03;2.33;;;1.70;;
4307;SDS011;2167;53.448;9.984;2022-07-23T02:54:29;1.20;;;1.10;;
4307;SDS011;2167;53.448;9.984;2022-07-23T02:56:54;2.37;;;1.50;;
4307;SDS011;2167;53.448;9.984;2022-07-23T02:59:20;3.60;;;1.87;;
4307;SDS011;2167;53.448;9.984;2022-07-23T03:01:45;1.53;;;1.43;;
4307;SDS011;2167;53.448;9.984;2022-07-23T03:04:11;10.63;;;1.87;;
4307;SDS011;2167;53.448;9.984;2022-07-23T03:06:37;4.83;;;1.33;;
4307;SDS011;2167;53.448;9.984;2022-07-23T03:09:03;2.00;;;1.20;;
4307;SDS011;2167;53.448;9.984;2022-07-23T03:11:30;6.70;;;1.60;;
4307;SDS011;2167;53.448;9.984;2022-07-23T03:13:55;1.57;;;1.47;;
4307;SDS011;2167;53.448;9.984;2022-07-23T03:16:21;3.53;;;1.53;;
4307;SDS011;2167;53.448;9.984;2022-07-23T03:18:47;1.27;;;1.27;;
4307;SDS011;2167;53.448;9.984;2022-07-23T03:21:12;1.53;;;1.43;;
4307;SDS011;2167;53.448;9.984;2022-07-23T03:23:38;3.13;;;1.63;;
4307;SDS011;2167;53.448;9.984;2022-07-23T03:26:04;4.33;;;2.00;;
4307;SDS011;2167;53.448;9.984;2022-07-23T03:28:29;1.70;;;1.00;;
4307;SDS011;2167;53.448;9.984;2022-07-23T03:30:55;1.50;;;1.40;;
4307;SDS011;2167;53.448;9.984;2022-07-23T03:33:22;3.50;;;1.60;;
4307;SDS011;2167;53.448;9.984;2022-07-23T03:35:48;1.57;;;1.20;;
4307;SDS011;2167;53.448;9.984;2022-07-23T03:38:14;5.50;;;2.07;;
4307;SDS011;2167;53.448;9.984;2022-07-23T03:40:40;2.33;;;1.40;;
4307;SDS011;2167;53.448;9.984;2022-07-23T03:43:06;7.43;;;1.93;;
4307;SDS011;2167;53.448;9.984;2022-07-23T03:45:32;5.43;;;1.90;;
4307;SDS011;2167;53.448;9.984;2022-07-23T03:47:58;2.20;;;1.50;;
4307;SDS011;2167;53.448;9.984;2022-07-23T03:50:23;1.73;;;1.63;;
4307;SDS011;2167;53.448;9.984;2022-07-23T03:52:49;1.40;;;1.30;;
4307;SDS011;2167;53.448;9.984;2022-07-23T03:55:15;2.63;;;1.90;;
4307;SDS011;2167;53.448;9.984;2022-07-23T03:57:41;5.90;;;2.47;;
4307;SDS011;2167;53.448;9.984;2022-07-23T04:00:07;8.93;;;2.50;;
4307;SDS011;2167;53.448;9.984;2022-07-23T04:02:35;2.23;;;1.60;;
4307;SDS011;2167;53.448;9.984;2022-07-23T04:05:01;2.80;;;1.60;;
4307;SDS011;2167;53.448;9.984;2022-07-23T04:07:27;3.53;;;2.20;;
4307;SDS011;2167;53.448;9.984;2022-07-23T04:09:52;4.17;;;1.90;;
4307;SDS011;2167;53.448;9.984;2022-07-23T04:12:18;2.80;;;1.90;;
4307;SDS011;2167;53.448;9.984;2022-07-23T04:14:44;7.00;;;2.03;;
4307;SDS011;2167;53.448;9.984;2022-07-23T04:17:10;1.87;;;1.60;;
4307;SDS011;2167;53.448;9.984;2022-07-23T04:19:36;2.37;;;2.03;;
4307;SDS011;2167;53.448;9.984;2022-07-23T04:22:05;2.00;;;1.80;;
4307;SDS011;2167;53.448;9.984;2022-07-23T04:24:31;4.87;;;2.00;;
4307;SDS011;2167;53.448;9.984;2022-07-23T04:26:57;5.67;;;2.03;;
4307;SDS011;2167;53.448;9.984;2022-07-23T04:29:23;7.50;;;2.00;;
4307;SDS011;2167;53.448;9.984;2022-07-23T04:31:49;6.73;;;2.20;;
4307;SDS011;2167;53.448;9.984;2022-07-23T04:34:15;4.30;;;1.83;;
4307;SDS011;2167;53.448;9.984;2022-07-23T04:36:40;3.20;;;1.60;;
4307;SDS011;2167;53.448;9.984;2022-07-23T04:39:06;2.63;;;1.80;;
4307;SDS011;2167;53.448;9.984;2022-07-23T04:41:32;3.50;;;2.07;;
4307;SDS011;2167;53.448;9.984;2022-07-23T04:43:59;2.97;;;1.67;;
4307;SDS011;2167;53.448;9.984;2022-07-23T04:46:24;4.10;;;1.73;;
4307;SDS011;2167;53.448;9.984;2022-07-23T04:48:50;2.53;;;1.80;;
4307;SDS011;2167;53.448;9.984;2022-07-23T04:51:16;1.70;;;1.53;;
4307;SDS011;2167;53.448;9.984;2022-07-23T04:53:41;2.77;;;1.90;;
4307;SDS011;2167;53.448;9.984;2022-07-23T04:56:07;1.47;;;1.37;;
4307;SDS011;2167;53.448;9.984;2022-07-23T04:58:33;2.00;;;1.67;;
4307;SDS011;2167;53.448;9.984;2022-07-23T05:00:58;2.60;;;2.10;;
4307;SDS011;2167;53.448;9.984;2022-07-23T05:03:24;3.43;;;1.77;;
4307;SDS011;2167;53.448;9.984;2022-07-23T05:05:49;2.53;;;1.60;;
4307;SDS011;2167;53.448;9.984;2022-07-23T05:08:15;4.07;;;2.30;;
4307;SDS011;2167;53.448;9.984;2022-07-23T05:10:40;3.33;;;2.10;;
4307;SDS011;2167;53.448;9.984;2022-07-23T05:13:06;7.70;;;2.73;;
4307;SDS011;2167;53.448;9.984;2022-07-23T05:15:32;5.87;;;1.67;;
4307;SDS011;2167;53.448;9.984;2022-07-23T05:17:58;5.57;;;3.80;;
4307;SDS011;2167;53.448;9.984;2022-07-23T05:20:23;2.37;;;2.10;;
4307;SDS011;2167;53.448;9.984;2022-07-23T05:22:49;3.43;;;2.30;;
4307;SDS011;2167;53.448;9.984;2022-07-23T05:25:15;10.03;;;2.43;;
4307;SDS011;2167;53.448;9.984;2022-07-23T05:27:40;2.20;;;1.70;;
4307;SDS011;2167;53.448;9.984;2022-07-23T05:30:06;7.03;;;2.17;;
4307;SDS011;2167;53.448;9.984;2022-07-23T05:32:32;5.67;;;2.17;;
4307;SDS011;2167;53.448;9.984;2022-07-23T05:34:58;3.20;;;1.87;;
4307;SDS011;2167;53.448;9.984;2022-07-23T05:37:24;2.63;;;2.13;;
4307;SDS011;2167;53.448;9.984;2022-07-23T05:39:49;3.50;;;1.83;;
4307;SDS011;2167;53.448;9.984;2022-07-23T05:42:15;3.47;;;2.63;;
4307;SDS011;2167;53.448;9.984;2022-07-23T05:44:41;3.17;;;2.03;;
4307;SDS011;2167;53.448;9.984;2022-07-23T05:47:06;3.37;;;2.10;;
4307;SDS011;2167;53.448;9.984;2022-07-23T05:49:32;8.43;;;2.37;;
4307;SDS011;2167;53.448;9.984;2022-07-23T05:51:57;2.20;;;2.00;;
4307;SDS011;2167;53.448;9.984;2022-07-23T05:54:23;2.83;;;1.70;;
4307;SDS011;2167;53.448;9.984;2022-07-23T05:56:49;3.33;;;2.10;;
4307;SDS011;2167;53.448;9.984;2022-07-23T05:59:15;2.47;;;1.80;;
4307;SDS011;2167;53.448;9.984;2022-07-23T06:01:41;3.40;;;1.70;;
4307;SDS011;2167;53.448;9.984;2022-07-23T06:04:06;6.00;;;2.10;;
4307;SDS011;2167;53.448;9.984;2022-07-23T06:06:33;2.10;;;1.80;;
4307;SDS011;2167;53.448;9.984;2022-07-23T06:08:58;2.07;;;1.83;;
4307;SDS011;2167;53.448;9.984;2022-07-23T06:11:24;5.60;;;2.70;;
4307;SDS011;2167;53.448;9.984;2022-07-23T06:13:49;2.17;;;1.87;;
4307;SDS011;2167;53.448;9.984;2022-07-23T06:16:15;3.03;;;1.80;;
4307;SDS011;2167;53.448;9.984;2022-07-23T06:18:41;1.80;;;1.70;;
4307;SDS011;2167;53.448;9.984;2022-07-23T06:21:08;2.23;;;2.03;;
4307;SDS011;2167;53.448;9.984;2022-07-23T06:23:34;2.27;;;1.97;;
4307;SDS011;2167;53.448;9.984;2022-07-23T06:25:59;2.00;;;1.77;;
4307;SDS011;2167;53.448;9.984;2022-07-23T06:28:25;2.07;;;1.20;;
4307;SDS011;2167;53.448;9.984;2022-07-23T06:30:51;1.53;;;1.43;;
4307;SDS011;2167;53.448;9.984;2022-07-23T06:33:16;2.90;;;1.40;;
4307;SDS011;2167;53.448;9.984;2022-07-23T06:35:42;2.57;;;1.47;;
4307;SDS011;2167;53.448;9.984;2022-07-23T06:38:07;3.27;;;1.67;;
4307;SDS011;2167;53.448;9.984;2022-07-23T06:40:33;2.20;;;1.50;;
4307;SDS011;2167;53.448;9.984;2022-07-23T06:42:59;2.67;;;1.83;;
4307;SDS011;2167;53.448;9.984;2022-07-23T06:45:25;6.40;;;1.87;;
4307;SDS011;2167;53.448;9.984;2022-07-23T06:47:50;2.57;;;1.57;;
4307;SDS011;2167;53.448;9.984;2022-07-23T06:50:16;17.63;;;2.43;;
4307;SDS011;2167;53.448;9.984;2022-07-23T06:52:41;2.80;;;1.40;;
4307;SDS011;2167;53.448;9.984;2022-07-23T06:55:07;2.23;;;1.70;;
4307;SDS011;2167;53.448;9.984;2022-07-23T06:57:33;3.40;;;1.83;;
4307;SDS011;2167;53.448;9.984;2022-07-23T06:59:58;2.40;;;1.93;;
4307;SDS011;2167;53.448;9.984;2022-07-23T07:02:24;1.60;;;1.50;;
4307;SDS011;2167;53.448;9.984;2022-07-23T07:04:50;3.17;;;1.30;;
4307;SDS011;2167;53.448;9.984;2022-07-23T07:07:15;1.63;;;1.30;;
4307;SDS011;2167;53.448;9.984;2022-07-23T07:09:41;2.47;;;1.53;;
4307;SDS011;2167;53.448;9.984;2022-07-23T07:12:06;2.27;;;2.07;;
4307;SDS011;2167;53.448;9.984;2022-07-23T07:14:32;3.43;;;1.67;;
4307;SDS011;2167;53.448;9.984;2022-07-23T07:16:58;5.70;;;1.53;;
4307;SDS011;2167;53.448;9.984;2022-07-23T07:19:23;1.80;;;1.60;;
4307;SDS011;2167;53.448;9.984;2022-07-23T07:21:49;1.73;;;1.63;;
4307;SDS011;2167;53.448;9.984;2022-07-23T07:24:15;3.87;;;1.40;;
4307;SDS011;2167;53.448;9.984;2022-07-23T07:26:40;2.33;;;1.40;;
4307;SDS011;2167;53.448;9.984;2022-07-23T07:29:06;3.43;;;1.30;;
4307;SDS011;2167;53.448;9.984;2022-07-23T07:31:32;3.10;;;1.50;;
4307;SDS011;2167;53.448;9.984;2022-07-23T07:33:57;1.40;;;1.20;;
4307;SDS011;2167;53.448;9.984;2022-07-23T07:36:23;3.13;;;2.00;;
4307;SDS011;2167;53.448;9.984;2022-07-23T07:38:49;5.53;;;1.80;;
4307;SDS011;2167;53.448;9.984;2022-07-23T07:41:15;0.90;;;0.90;;
4307;SDS011;2167;53.448;9.984;2022-07-23T07:43:41;1.23;;;0.80;;
4307;SDS011;2167;53.448;9.984;2022-07-23T07:46:07;0.77;;;0.77;;
4307;SDS011;2167;53.448;9.984;2022-07-23T07:48:36;1.03;;;1.03;;
4307;SDS011;2167;53.448;9.984;2022-07-23T07:51:03;2.20;;;0.80;;
4307;SDS011;2167;53.448;9.984;2022-07-23T07:53:29;1.57;;;0.73;;
4307;SDS011;2167;53.448;9.984;2022-07-23T07:55:55;1.20;;;0.73;;
4307;SDS011;2167;53.448;9.984;2022-07-23T07:58:21;1.10;;;0.77;;
4307;SDS011;2167;53.448;9.984;2022-07-23T08:00:46;2.83;;;0.87;;
4307;SDS011;2167;53.448;9.984;2022-07-23T08:03:12;2.73;;;0.80;;
4307;SDS011;2167;53.448;9.984;2022-07-23T08:05:38;0.60;;;0.60;;
4307;SDS011;2167;53.448;9.984;2022-07-23T08:08:04;1.43;;;0.80;;
4307;SDS011;2167;53.448;9.984;2022-07-23T08:10:30;2.00;;;0.70;;
4307;SDS011;2167;53.448;9.984;2022-07-23T08:12:57;0.97;;;0.70;;
4307;SDS011;2167;53.448;9.984;2022-07-23T08:15:26;0.70;;;0.70;;
4307;SDS011;2167;53.448;9.984;2022-07-23T08:17:52;0.73;;;0.73;;
4307;SDS011;2167;53.448;9.984;2022-07-23T08:20:19;0.70;;;0.70;;
4307;SDS011;2167;53.448;9.984;2022-07-23T08:22:56;1.60;;;1.10;;
4307;SDS011;2167;53.448;9.984;2022-07-23T08:25:24;0.70;;;0.70;;
4307;SDS011;2167;53.448;9.984;2022-07-23T08:27:58;0.80;;;0.77;;
4307;SDS011;2167;53.448;9.984;2022-07-23T08:30:25;2.27;;;0.80;;
4307;SDS011;2167;53.448;9.984;2022-07-23T08:32:59;2.33;;;0.70;;
4307;SDS011;2167;53.448;9.984;2022-07-23T08:35:45;0.80;;;0.80;;
4307;SDS011;2167;53.448;9.984;2022-07-23T08:38:14;1.13;;;1.13;;
4307;SDS011;2167;53.448;9.984;2022-07-23T08:40:45;0.67;;;0.40;;
4307;SDS011;2167;53.448;9.984;2022-07-23T08:43:13;0.60;;;0.40;;
4307;SDS011;2167;53.448;9.984;2022-07-23T08:45:41;1.73;;;0.80;;
4307;SDS011;2167;53.448;9.984;2022-07-23T08:48:12;1.00;;;0.60;;
4307;SDS011;2167;53.448;9.984;2022-07-23T08:50:42;2.47;;;0.60;;
4307;SDS011;2167;53.448;9.984;2022-07-23T08:53:08;1.20;;;0.40;;
4307;SDS011;2167;53.448;9.984;2022-07-23T08:55:35;0.40;;;0.40;;
4307;SDS011;2167;53.448;9.984;2022-07-23T08:58:01;1.63;;;0.70;;
4307;SDS011;2167;53.448;9.984;2022-07-23T09:00:27;0.70;;;0.53;;
4307;SDS011;2167;53.448;9.984;2022-07-23T09:02:53;1.93;;;0.87;;
4307;SDS011;2167;53.448;9.984;2022-07-23T09:05:19;0.60;;;0.40;;
4307;SDS011;2167;53.448;9.984;2022-07-23T09:10:42;0.53;;;0.53;;
4307;SDS011;2167;53.448;9.984;2022-07-23T09:16:12;1.50;;;0.70;;
4307;SDS011;2167;53.448;9.984;2022-07-23T09:18:46;0.57;;;0.57;;
4307;SDS011;2167;53.448;9.984;2022-07-23T09:24:12;2.10;;;0.40;;
4307;SDS011;2167;53.448;9.984;2022-07-23T09:29:11;0.60;;;0.60;;
4307;SDS011;2167;53.448;9.984;2022-07-23T09:34:12;2.00;;;0.43;;
4307;SDS011;2167;53.448;9.984;2022-07-23T09:36:48;0.70;;;0.70;;
4307;SDS011;2167;53.448;9.984;2022-07-23T09:39:16;0.50;;;0.50;;
4307;SDS011;2167;53.448;9.984;2022-07-23T09:41:50;0.53;;;0.53;;
4307;SDS011;2167;53.448;9.984;2022-07-23T09:44:16;0.40;;;0.40;;
4307;SDS011;2167;53.448;9.984;2022-07-23T09:46:44;0.97;;;0.60;;
4307;SDS011;2167;53.448;9.984;2022-07-23T09:49:13;0.60;;;0.60;;
4307;SDS011;2167;53.448;9.984;2022-07-23T09:54:23;1.00;;;0.60;;
4307;SDS011;2167;53.448;9.984;2022-07-23T09:56:52;1.57;;;0.93;;
4307;SDS011;2167;53.448;9.984;2022-07-23T09:59:21;1.10;;;0.70;;
4307;SDS011;2167;53.448;9.984;2022-07-23T10:01:50;0.80;;;0.60;;
4307;SDS011;2167;53.448;9.984;2022-07-23T10:04:16;0.63;;;0.63;;
4307;SDS011;2167;53.448;9.984;2022-07-23T10:06:43;0.60;;;0.60;;
4307;SDS011;2167;53.448;9.984;2022-07-23T10:09:10;0.90;;;0.70;;
4307;SDS011;2167;53.448;9.984;2022-07-23T10:11:38;1.17;;;0.70;;
4307;SDS011;2167;53.448;9.984;2022-07-23T10:14:04;0.67;;;0.67;;
4307;SDS011;2167;53.448;9.984;2022-07-23T10:16:31;2.83;;;0.90;;
4307;SDS011;2167;53.448;9.984;2022-07-23T10:18:57;6.80;;;1.60;;
4307;SDS011;2167;53.448;9.984;2022-07-23T10:29:46;0.90;;;0.80;;
4307;SDS011;2167;53.448;9.984;2022-07-23T10:37:51;2.20;;;1.00;;
4307;SDS011;2167;53.448;9.984;2022-07-23T10:40:26;2.47;;;0.50;;
4307;SDS011;2167;53.448;9.984;2022-07-23T10:42:54;2.03;;;0.60;;
4307;SDS011;2167;53.448;9.984;2022-07-23T10:48:11;0.70;;;0.53;;
4307;SDS011;2167;53.448;9.984;2022-07-23T10:50:41;0.50;;;0.50;;
4307;SDS011;2167;53.448;9.984;2022-07-23T10:53:25;0.80;;;0.70;;
4307;SDS011;2167;53.448;9.984;2022-07-23T10:55:51;0.53;;;0.53;;
4307;SDS011;2167;53.448;9.984;2022-07-23T11:01:35;1.23;;;0.60;;
4307;SDS011;2167;53.448;9.984;2022-07-23T11:04:03;0.40;;;0.40;;
4307;SDS011;2167;53.448;9.984;2022-07-23T11:09:27;0.70;;;0.60;;
4307;SDS011;2167;53.448;9.984;2022-07-23T11:17:22;0.77;;;0.60;;
4307;SDS011;2167;53.448;9.984;2022-07-23T11:22:46;1.13;;;0.60;;
4307;SDS011;2167;53.448;9.984;2022-07-23T11:25:28;0.87;;;0.40;;
4307;SDS011;2167;53.448;9.984;2022-07-23T11:28:16;0.87;;;0.50;;
4307;SDS011;2167;53.448;9.984;2022-07-23T11:30:45;0.97;;;0.47;;
4307;SDS011;2167;53.448;9.984;2022-07-23T11:33:15;0.70;;;0.57;;
4307;SDS011;2167;53.448;9.984;2022-07-23T11:35:43;1.07;;;0.47;;
4307;SDS011;2167;53.448;9.984;2022-07-23T11:38:14;0.70;;;0.60;;
4307;SDS011;2167;53.448;9.984;2022-07-23T11:40:45;1.03;;;0.50;;
4307;SDS011;2167;53.448;9.984;2022-07-23T11:43:24;0.60;;;0.50;;
4307;SDS011;2167;53.448;9.984;2022-07-23T11:45:51;1.60;;;0.57;;
4307;SDS011;2167;53.448;9.984;2022-07-23T11:48:22;1.80;;;0.50;;
4307;SDS011;2167;53.448;9.984;2022-07-23T11:50:49;0.60;;;0.47;;
4307;SDS011;2167;53.448;9.984;2022-07-23T11:53:49;0.77;;;0.60;;
4307;SDS011;2167;53.448;9.984;2022-07-23T11:56:10;0.67;;;0.60;;
4307;SDS011;2167;53.448;9.984;2022-07-23T11:58:37;0.50;;;0.50;;
4307;SDS011;2167;53.448;9.984;2022-07-23T12:01:04;0.73;;;0.60;;
4307;SDS011;2167;53.448;9.984;2022-07-23T12:03:30;0.50;;;0.50;;
4307;SDS011;2167;53.448;9.984;2022-07-23T12:05:56;1.70;;;0.80;;
4307;SDS011;2167;53.448;9.984;2022-07-23T12:08:24;0.70;;;0.70;;
4307;SDS011;2167;53.448;9.984;2022-07-23T12:10:49;0.67;;;0.67;;
4307;SDS011;2167;53.448;9.984;2022-07-23T12:13:17;1.50;;;0.60;;
4307;SDS011;2167;53.448;9.984;2022-07-23T12:15:45;1.57;;;0.60;;
4307;SDS011;2167;53.448;9.984;2022-07-23T12:18:21;2.17;;;0.73;;
4307;SDS011;2167;53.448;9.984;2022-07-23T12:20:49;0.83;;;0.60;;
4307;SDS011;2167;53.448;9.984;2022-07-23T12:23:18;1.77;;;0.77;;
4307;SDS011;2167;53.448;9.984;2022-07-23T12:25:46;0.50;;;0.40;;
4307;SDS011;2167;53.448;9.984;2022-07-23T12:28:17;8.13;;;1.27;;
4307;SDS011;2167;53.448;9.984;2022-07-23T12:30:47;1.73;;;0.60;;
4307;SDS011;2167;53.448;9.984;2022-07-23T12:33:24;2.33;;;0.80;;
4307;SDS011;2167;53.448;9.984;2022-07-23T12:35:52;0.60;;;0.60;;
4307;SDS011;2167;53.448;9.984;2022-07-23T12:38:19;0.73;;;0.70;;
4307;SDS011;2167;53.448;9.984;2022-07-23T12:43:20;0.63;;;0.63;;
4307;SDS011;2167;53.448;9.984;2022-07-23T12:45:50;1.10;;;0.90;;
4307;SDS011;2167;53.448;9.984;2022-07-23T12:48:33;3.60;;;0.80;;
4307;SDS011;2167;53.448;9.984;2022-07-23T12:51:17;1.40;;;0.57;;
4307;SDS011;2167;53.448;9.984;2022-07-23T12:53:50;0.70;;;0.70;;
4307;SDS011;2167;53.448;9.984;2022-07-23T12:56:26;1.00;;;0.80;;
4307;SDS011;2167;53.448;9.984;2022-07-23T12:58:55;1.50;;;0.90;;
4307;SDS011;2167;53.448;9.984;2022-07-23T13:03:59;2.50;;;1.07;;
4307;SDS011;2167;53.448;9.984;2022-07-23T13:06:32;1.20;;;1.10;;
4307;SDS011;2167;53.448;9.984;2022-07-23T13:09:10;1.43;;;1.33;;
4307;SDS011;2167;53.448;9.984;2022-07-23T13:11:38;1.10;;;1.00;;
4307;SDS011;2167;53.448;9.984;2022-07-23T13:14:04;2.90;;;2.07;;
4307;SDS011;2167;53.448;9.984;2022-07-23T13:16:30;5.53;;;1.67;;
4307;SDS011;2167;53.448;9.984;2022-07-23T13:18:57;0.90;;;0.90;;
4307;SDS011;2167;53.448;9.984;2022-07-23T13:21:23;3.23;;;1.17;;
4307;SDS011;2167;53.448;9.984;2022-07-23T13:23:49;3.33;;;1.30;;
4307;SDS011;2167;53.448;9.984;2022-07-23T13:26:15;1.67;;;1.10;;
4307;SDS011;2167;53.448;9.984;2022-07-23T13:28:41;0.90;;;0.90;;
4307;SDS011;2167;53.448;9.984;2022-07-23T13:31:07;2.00;;;1.10;;
4307;SDS011;2167;53.448;9.984;2022-07-23T13:33:33;0.80;;;0.80;;
4307;SDS011;2167;53.448;9.984;2022-07-23T13:35:59;1.47;;;0.90;;
4307;SDS011;2167;53.448;9.984;2022-07-23T13:38:25;1.10;;;1.00;;
4307;SDS011;2167;53.448;9.984;2022-07-23T13:40:51;4.00;;;1.10;;
4307;SDS011;2167;53.448;9.984;2022-07-23T13:43:18;1.07;;;0.83;;
4307;SDS011;2167;53.448;9.984;2022-07-23T13:45:46;3.10;;;0.90;;
4307;SDS011;2167;53.448;9.984;2022-07-23T13:48:12;1.77;;;1.00;;
4307;SDS011;2167;53.448;9.984;2022-07-23T13:50:39;1.00;;;0.90;;
4307;SDS011;2167;53.448;9.984;2022-07-23T13:53:06;2.70;;;1.27;;
4307;SDS011;2167;53.448;9.984;2022-07-23T13:55:34;2.20;;;1.20;;
4307;SDS011;2167;53.448;9.984;2022-07-23T13:58:01;1.40;;;0.93;;
4307;SDS011;2167;53.448;9.984;2022-07-23T14:00:27;2.10;;;1.00;;
4307;SDS011;2167;53.448;9.984;2022-07-23T14:02:53;2.90;;;1.17;;
4307;SDS011;2167;53.448;9.984;2022-07-23T14:05:19;1.53;;;1.00;;
4307;SDS011;2167;53.448;9.984;2022-07-23T14:07:45;0.63;;;0.63;;
4307;SDS011;2167;53.448;9.984;2022-07-23T14:10:14;3.03;;;1.00;;
4307;SDS011;2167;53.448;9.984;2022-07-23T14:12:41;0.73;;;0.60;;
4307;SDS011;2167;53.448;9.984;2022-07-23T14:15:06;1.10;;;0.70;;
4307;SDS011;2167;53.448;9.984;2022-07-23T14:17:33;1.47;;;0.87;;
4307;SDS011;2167;53.448;9.984;2022-07-23T14:20:01;4.10;;;1.67;;
4307;SDS011;2167;53.448;9.984;2022-07-23T14:22:27;0.73;;;0.73;;
4307;SDS011;2167;53.448;9.984;2022-07-23T14:24:53;0.63;;;0.60;;
4307;SDS011;2167;53.448;9.984;2022-07-23T14:27:19;1.00;;;0.70;;
4307;SDS011;2167;53.448;9.984;2022-07-23T14:29:44;0.93;;;0.80;;
4307;SDS011;2167;53.448;9.984;2022-07-23T14:32:10;0.80;;;0.80;;
4307;SDS011;2167;53.448;9.984;2022-07-23T14:34:36;4.73;;;1.57;;
4307;SDS011;2167;53.448;9.984;2022-07-23T14:37:02;1.93;;;1.20;;
4307;SDS011;2167;53.448;9.984;2022-07-23T14:39:27;1.70;;;1.10;;
4307;SDS011;2167;53.448;9.984;2022-07-23T14:41:53;1.00;;;0.83;;
4307;SDS011;2167;53.448;9.984;2022-07-23T14:44:19;1.27;;;0.80;;
4307;SDS011;2167;53.448;9.984;2022-07-23T14:46:44;1.30;;;0.90;;
4307;SDS011;2167;53.448;9.984;2022-07-23T14:49:10;1.50;;;1.10;;
4307;SDS011;2167;53.448;9.984;2022-07-23T14:51:36;1.50;;;1.10;;
4307;SDS011;2167;53.448;9.984;2022-07-23T14:54:02;1.27;;;0.90;;
4307;SDS011;2167;53.448;9.984;2022-07-23T14:56:29;2.60;;;1.03;;
4307;SDS011;2167;53.448;9.984;2022-07-23T14:58:54;0.70;;;0.70;;
4307;SDS011;2167;53.448;9.984;2022-07-23T15:01:23;0.70;;;0.70;;
4307;SDS011;2167;53.448;9.984;2022-07-23T15:03:49;1.53;;;0.63;;
4307;SDS011;2167;53.448;9.984;2022-07-23T15:06:15;1.10;;;1.10;;
4307;SDS011;2167;53.448;9.984;2022-07-23T15:08:42;3.17;;;1.10;;
4307;SDS011;2167;53.448;9.984;2022-07-23T15:11:08;1.20;;;1.10;;
4307;SDS011;2167;53.448;9.984;2022-07-23T15:13:34;2.40;;;0.90;;
4307;SDS011;2167;53.448;9.984;2022-07-23T15:16:01;1.30;;;1.00;;
4307;SDS011;2167;53.448;9.984;2022-07-23T15:18:28;1.37;;;1.03;;
4307;SDS011;2167;53.448;9.984;2022-07-23T15:20:54;2.23;;;1.03;;
4307;SDS011;2167;53.448;9.984;2022-07-23T15:23:20;0.90;;;0.90;;
4307;SDS011;2167;53.448;9.984;2022-07-23T15:25:45;3.30;;;0.90;;
4307;SDS011;2167;53.448;9.984;2022-07-23T15:28:11;2.43;;;0.80;;
4307;SDS011;2167;53.448;9.984;2022-07-23T15:30:36;3.90;;;1.00;;
4307;SDS011;2167;53.448;9.984;2022-07-23T15:33:02;1.97;;;1.07;;
4307;SDS011;2167;53.448;9.984;2022-07-23T15:35:28;1.50;;;0.80;;
4307;SDS011;2167;53.448;9.984;2022-07-23T15:37:56;3.10;;;1.00;;
4307;SDS011;2167;53.448;9.984;2022-07-23T15:40:21;2.03;;;0.80;;
4307;SDS011;2167;53.448;9.984;2022-07-23T15:42:47;1.03;;;0.93;;
4307;SDS011;2167;53.448;9.984;2022-07-23T15:45:12;1.20;;;0.80;;
4307;SDS011;2167;53.448;9.984;2022-07-23T15:47:38;1.40;;;1.00;;
4307;SDS011;2167;53.448;9.984;2022-07-23T15:50:06;2.33;;;0.97;;
4307;SDS011;2167;53.448;9.984;2022-07-23T15:52:32;0.77;;;0.60;;
4307;SDS011;2167;53.448;9.984;2022-07-23T15:54:57;0.70;;;0.70;;
4307;SDS011;2167;53.448;9.984;2022-07-23T15:57:23;0.80;;;0.80;;
4307;SDS011;2167;53.448;9.984;2022-07-23T15:59:49;1.53;;;1.03;;
4307;SDS011;2167;53.448;9.984;2022-07-23T16:02:15;2.30;;;1.17;;
4307;SDS011;2167;53.448;9.984;2022-07-23T16:04:41;3.70;;;1.13;;
4307;SDS011;2167;53.448;9.984;2022-07-23T16:07:07;1.23;;;0.90;;